createdAt,value
2022-10-12T00:02:18.527Z,45.09
2022-10-12T00:09:03.941Z,45.35
2022-10-12T00:15:52.257Z,45.32
2022-10-12T00:22:37.755Z,45.18
2022-10-12T00:29:23.134Z,45.56
2022-10-12T00:36:22.279Z,45.41
2022-10-12T00:43:07.657Z,45.15
2022-10-12T00:49:59.937Z,45.49
2022-10-12T00:56:50.604Z,45.50
2022-10-12T01:03:36.524Z,45.56
2022-10-12T01:10:22.502Z,45.69
2022-10-12T01:17:25.247Z,46.14
2022-10-12T01:24:42.516Z,45.97
2022-10-12T01:31:37.642Z,46.03
2022-10-12T01:38:46.302Z,46.08
2022-10-12T01:45:31.653Z,45.95
2022-10-12T01:52:31.820Z,46.29
2022-10-12T01:59:24.799Z,46.38
2022-10-12T02:06:14.388Z,46.42
2022-10-12T02:13:10.110Z,46.42
2022-10-12T02:20:00.812Z,46.06
2022-10-12T02:26:50.980Z,46.22
2022-10-12T02:33:45.456Z,46.43
2022-10-12T02:40:39.328Z,46.40
2022-10-12T03:01:17.018Z,46.71
2022-10-12T03:08:02.538Z,46.46
2022-10-12T03:14:47.888Z,46.50
2022-10-12T03:21:35.867Z,46.77
2022-10-12T03:28:21.489Z,47.12
2022-10-12T03:35:07.082Z,47.08
2022-10-12T03:41:55.046Z,47.24
2022-10-12T03:48:40.601Z,46.86
2022-10-12T03:55:26.250Z,47.03
2022-10-12T04:02:16.830Z,46.89
2022-10-12T04:09:02.708Z,46.89
2022-10-12T04:15:48.145Z,46.96
2022-10-12T04:22:36.440Z,46.89
2022-10-12T04:29:22.210Z,46.86
2022-10-12T04:36:08.171Z,47.00
2022-10-12T04:42:56.230Z,46.90
2022-10-12T04:49:41.630Z,46.91
2022-10-12T04:56:26.984Z,46.82
2022-10-12T05:03:14.943Z,47.15
2022-10-12T05:10:00.310Z,47.00
2022-10-12T05:16:49.571Z,46.67
2022-10-12T05:23:37.549Z,46.94
2022-10-12T05:30:22.909Z,46.73
2022-10-12T05:37:08.458Z,47.07
2022-10-12T05:43:56.476Z,46.93
2022-10-12T05:50:41.821Z,46.83
2022-10-12T05:57:27.260Z,47.03
2022-10-12T06:04:15.388Z,47.17
2022-10-12T06:11:00.923Z,47.05
2022-10-12T06:17:46.276Z,47.21
2022-10-12T06:24:34.282Z,47.42
2022-10-12T06:31:19.640Z,47.33
2022-10-12T06:38:05.704Z,47.67
2022-10-12T06:44:53.882Z,47.63
2022-10-12T06:51:39.413Z,47.71
2022-10-12T06:58:24.783Z,47.79
2022-10-12T07:05:13.569Z,47.88
2022-10-12T07:11:59.264Z,48.00
2022-10-12T07:18:44.713Z,48.37
2022-10-12T07:25:33.231Z,49.21
2022-10-12T07:32:18.816Z,49.87
2022-10-12T07:39:05.556Z,50.60
2022-10-12T07:45:53.613Z,51.06
2022-10-12T07:52:39.268Z,51.34
2022-10-12T07:59:25.038Z,51.49
2022-10-12T08:06:18.943Z,51.94
2022-10-12T08:13:04.370Z,51.81
2022-10-12T08:19:49.801Z,52.02
2022-10-12T08:26:37.807Z,52.06
2022-10-12T08:33:23.824Z,51.91
2022-10-12T08:40:12.356Z,51.93
2022-10-12T08:47:06.057Z,52.04
2022-10-12T08:53:57.386Z,52.03
2022-10-12T09:00:42.813Z,51.84
2022-10-12T09:07:34.884Z,52.05
2022-10-12T09:14:25.969Z,51.90
2022-10-12T09:21:16.832Z,51.51
2022-10-12T09:28:18.426Z,51.89
2022-10-12T09:35:04.187Z,51.67
2022-10-12T09:41:51.620Z,51.33
2022-10-12T09:48:40.540Z,51.46
2022-10-12T09:55:30.746Z,51.21
2022-10-12T10:02:20.748Z,51.49
2022-10-12T10:09:16.084Z,51.18
2022-10-12T10:16:08.523Z,51.20
2022-10-12T10:22:53.901Z,51.12
2022-10-12T10:29:45.445Z,51.42
2022-10-12T10:36:31.609Z,51.19
2022-10-12T10:43:27.537Z,51.43
2022-10-12T10:50:29.664Z,51.20
2022-10-12T10:57:21.213Z,51.07
2022-10-12T11:04:11.429Z,51.56
2022-10-12T11:11:05.095Z,51.51
2022-10-12T11:17:55.235Z,51.63
2022-10-12T11:24:48.375Z,51.03
2022-10-12T11:31:43.001Z,51.17
2022-10-12T11:38:34.869Z,51.12
2022-10-12T11:45:27.635Z,50.93
2022-10-12T11:52:16.110Z,50.86
2022-10-12T11:59:08.156Z,50.33
2022-10-12T12:05:53.516Z,50.56
2022-10-12T12:13:22.713Z,50.88
2022-10-12T12:20:58.754Z,50.75
2022-10-12T12:27:50.424Z,50.65
2022-10-12T12:34:36.301Z,50.39
2022-10-12T12:41:23.935Z,50.19
2022-10-12T12:48:14.413Z,50.25
2022-10-12T12:55:46.142Z,50.08
2022-10-12T13:03:21.398Z,49.86
2022-10-12T13:10:42.294Z,50.08
2022-10-12T13:17:53.684Z,49.60
2022-10-12T13:24:50.232Z,49.53
2022-10-12T13:31:41.342Z,49.05
2022-10-12T13:38:29.763Z,49.21
2022-10-12T13:45:20.207Z,49.20
2022-10-12T13:52:31.891Z,49.44
2022-10-12T13:59:23.272Z,49.42
2022-10-12T14:06:09.797Z,49.20
2022-10-12T14:12:59.558Z,48.97
2022-10-12T14:19:51.470Z,48.98
2022-10-12T14:26:42.612Z,48.67
2022-10-12T14:33:31.678Z,48.81
2022-10-12T14:40:35.932Z,48.69
2022-10-12T14:47:25.627Z,48.91
2022-10-12T14:54:15.714Z,49.23
2022-10-12T15:01:01.194Z,49.19
2022-10-12T15:07:47.616Z,48.69
2022-10-12T15:14:35.654Z,48.67
2022-10-12T15:21:22.054Z,48.95
2022-10-12T15:28:08.867Z,48.80
2022-10-12T15:34:56.808Z,48.45
2022-10-12T15:41:42.436Z,49.15
2022-10-12T15:48:28.680Z,48.62
2022-10-12T15:55:20.428Z,48.45
2022-10-12T16:02:13.037Z,48.86
2022-10-12T16:08:58.452Z,48.97
2022-10-12T16:15:47.287Z,49.13
2022-10-12T16:22:32.872Z,48.71
2022-10-12T16:29:18.269Z,49.15
2022-10-12T16:36:13.520Z,49.09
2022-10-12T16:42:59.131Z,49.28
2022-10-12T16:49:44.890Z,48.86
2022-10-12T16:56:37.087Z,48.95
2022-10-12T17:03:25.046Z,49.11
2022-10-12T17:10:11.902Z,49.03
2022-10-12T17:17:00.173Z,49.58
2022-10-12T17:23:46.257Z,49.18
2022-10-12T17:30:31.707Z,49.11
2022-10-12T17:37:21.202Z,49.71
2022-10-12T17:44:06.742Z,49.29
2022-10-12T17:50:52.694Z,49.54
2022-10-12T17:57:40.804Z,49.36
2022-10-12T18:04:26.220Z,49.64
2022-10-12T18:11:11.925Z,49.27
2022-10-12T18:17:59.866Z,49.57
2022-10-12T18:24:45.329Z,49.84
2022-10-12T18:31:32.245Z,49.48
2022-10-12T18:38:20.544Z,50.02
2022-10-12T18:45:06.522Z,50.10
2022-10-12T18:51:53.033Z,50.20
2022-10-12T18:58:42.024Z,49.83
2022-10-12T19:05:27.769Z,50.25
2022-10-12T19:12:16.787Z,50.09
2022-10-12T19:19:07.527Z,49.91
2022-10-12T19:25:52.889Z,50.20
2022-10-12T19:32:38.269Z,49.96
2022-10-12T19:39:27.361Z,50.03
2022-10-12T19:46:15.735Z,49.77
2022-10-12T19:53:01.073Z,49.59
2022-10-12T19:59:49.033Z,49.77
2022-10-12T20:06:34.415Z,49.89
2022-10-12T20:13:19.769Z,49.95
2022-10-12T20:20:09.087Z,50.23
2022-10-12T20:26:54.465Z,50.29
2022-10-12T20:33:42.264Z,50.20
2022-10-12T20:40:30.920Z,50.24
2022-10-12T20:47:16.548Z,50.34
2022-10-12T20:54:03.062Z,49.96
2022-10-12T21:00:51.109Z,49.77
2022-10-12T21:07:37.577Z,49.98
2022-10-12T21:14:26.322Z,49.90
2022-10-12T21:21:17.641Z,50.07
2022-10-12T21:28:02.979Z,49.69
2022-10-12T21:34:48.468Z,49.40
2022-10-12T21:41:36.400Z,49.99
2022-10-12T21:48:21.771Z,49.81
2022-10-12T21:55:08.283Z,49.78
2022-10-12T22:01:56.037Z,49.48
2022-10-12T22:08:41.458Z,50.32
2022-10-12T22:15:31.715Z,50.35
2022-10-12T22:22:26.161Z,50.71
2022-10-12T22:29:12.064Z,50.29
2022-10-12T22:35:58.385Z,50.64
2022-10-12T22:42:46.325Z,50.41
2022-10-12T22:49:31.934Z,50.30
2022-10-12T22:56:20.010Z,50.44
2022-10-12T23:03:09.201Z,50.64
2022-10-12T23:09:54.584Z,50.54
2022-10-12T23:16:40.511Z,50.25
2022-10-12T23:23:28.473Z,50.14
2022-10-12T23:30:14.657Z,50.16
2022-10-12T23:37:00.118Z,50.20
2022-10-12T23:43:48.865Z,50.04
2022-10-12T23:50:34.273Z,49.91
2022-10-12T23:57:45.254Z,49.94
